createdAt,value
2018-06-14T00:00:11.980Z,17.70
2018-06-14T00:02:39.442Z,18.40
2018-06-14T00:05:06.762Z,16.60
2018-06-14T00:07:34.635Z,17.20
2018-06-14T00:10:01.990Z,15.80
2018-06-14T00:12:29.389Z,16.90
2018-06-14T00:14:56.808Z,17.10
2018-06-14T00:17:24.239Z,17.10
2018-06-14T00:19:51.632Z,19.00
2018-06-14T00:22:18.919Z,21.40
2018-06-14T00:24:46.227Z,19.60
2018-06-14T00:27:13.582Z,18.30
2018-06-14T00:29:40.977Z,18.00
2018-06-14T00:32:08.439Z,19.70
2018-06-14T00:34:35.884Z,19.30
2018-06-14T00:37:03.228Z,20.10
2018-06-14T00:39:30.581Z,19.30
2018-06-14T00:41:57.869Z,20.50
2018-06-14T00:44:25.175Z,19.60
2018-06-14T00:46:52.534Z,18.90
2018-06-14T00:49:20.181Z,19.60
2018-06-14T00:51:47.661Z,20.30
2018-06-14T00:54:14.968Z,18.80
2018-06-14T00:56:53.812Z,19.30
2018-06-14T00:59:21.243Z,18.80
2018-06-14T01:01:48.885Z,18.00
2018-06-14T01:04:17.154Z,17.10
2018-06-14T01:06:44.484Z,17.80
2018-06-14T01:09:11.748Z,15.70
2018-06-14T01:11:40.423Z,17.50
2018-06-14T01:14:08.017Z,19.20
2018-06-14T01:16:35.627Z,18.20
2018-06-14T01:19:03.128Z,17.30
2018-06-14T01:21:30.815Z,15.70
2018-06-14T01:23:58.136Z,16.50
2018-06-14T01:26:25.394Z,18.90
2018-06-14T01:28:52.963Z,15.90
2018-06-14T01:31:20.520Z,18.40
2018-06-14T01:33:47.962Z,16.70
2018-06-14T01:36:15.233Z,15.70
2018-06-14T01:38:42.684Z,15.70
2018-06-14T01:41:21.419Z,18.50
2018-06-14T01:43:48.845Z,17.80
2018-06-14T01:46:16.168Z,15.30
2018-06-14T01:48:43.439Z,17.80
2018-06-14T01:51:10.833Z,16.30
2018-06-14T01:53:39.268Z,22.70
2018-06-14T01:56:06.703Z,22.70
2018-06-14T01:58:34.124Z,19.90
2018-06-14T02:01:01.572Z,18.70
2018-06-14T02:03:29.224Z,19.20
2018-06-14T02:05:56.724Z,18.00
2018-06-14T02:08:24.241Z,22.30
2018-06-14T02:10:51.650Z,24.90
2018-06-14T02:13:19.006Z,22.70
2018-06-14T02:15:46.408Z,20.10
2018-06-14T02:18:13.711Z,22.30
2018-06-14T02:20:40.976Z,23.00
2018-06-14T02:23:08.321Z,22.90
2018-06-14T02:25:35.821Z,24.70
2018-06-14T02:28:03.128Z,23.30
2018-06-14T02:30:30.581Z,22.90
2018-06-14T02:32:57.943Z,23.70
2018-06-14T02:35:25.272Z,22.50
2018-06-14T02:37:52.638Z,22.50
2018-06-14T02:40:20.009Z,23.30
2018-06-14T02:42:47.430Z,23.00
2018-06-14T02:45:14.712Z,22.40
2018-06-14T02:47:43.041Z,22.80
2018-06-14T02:50:10.530Z,23.90
2018-06-14T02:52:37.896Z,27.00
2018-06-14T02:55:05.844Z,26.10
2018-06-14T02:57:33.210Z,28.40
2018-06-14T03:00:00.577Z,28.00
2018-06-14T03:02:28.433Z,28.70
2018-06-14T03:04:55.687Z,24.10
2018-06-14T03:07:28.712Z,24.50
2018-06-14T03:09:56.170Z,26.50
2018-06-14T03:12:23.484Z,28.90
2018-06-14T03:14:50.788Z,26.30
2018-06-14T03:17:19.496Z,29.30
2018-06-14T03:19:47.156Z,28.30
2018-06-14T03:22:14.579Z,28.20
2018-06-14T03:24:42.006Z,27.00
2018-06-14T03:27:09.573Z,27.60
2018-06-14T03:29:37.007Z,28.70
2018-06-14T03:32:04.370Z,31.10
2018-06-14T03:34:32.131Z,28.50
2018-06-14T03:36:59.505Z,27.60
2018-06-14T03:39:26.953Z,27.70
2018-06-14T03:41:54.283Z,27.70
2018-06-14T03:44:21.563Z,32.20
2018-06-14T03:46:49.059Z,30.60
2018-06-14T03:49:16.556Z,27.90
2018-06-14T03:51:43.830Z,28.50
2018-06-14T03:54:11.159Z,28.50
2018-06-14T03:56:38.528Z,28.70
2018-06-14T03:59:05.853Z,29.50
2018-06-14T04:01:33.439Z,32.20
2018-06-14T04:04:00.757Z,31.50
2018-06-14T04:06:28.001Z,28.90
2018-06-14T04:08:55.376Z,28.60
2018-06-14T04:11:22.785Z,32.60
2018-06-14T04:13:50.236Z,34.80
2018-06-14T04:16:17.526Z,32.40
2018-06-14T04:18:44.792Z,35.40
2018-06-14T04:21:12.304Z,31.70
2018-06-14T04:23:48.856Z,30.80
2018-06-14T04:26:16.254Z,31.40
2018-06-14T04:28:43.683Z,29.80
2018-06-14T04:31:10.985Z,32.80
2018-06-14T04:33:38.301Z,29.40
2018-06-14T04:36:05.703Z,30.70
2018-06-14T04:38:33.097Z,34.60
2018-06-14T04:43:27.739Z,30.90
2018-06-14T04:45:55.043Z,33.00
2018-06-14T04:48:22.403Z,31.20
2018-06-14T04:50:49.894Z,32.00
2018-06-14T04:53:17.229Z,30.40
2018-06-14T04:55:44.512Z,32.70
2018-06-14T04:58:11.752Z,31.60
2018-06-14T05:00:39.062Z,30.70
2018-06-14T05:03:06.316Z,33.40
2018-06-14T05:05:33.571Z,34.60
2018-06-14T05:08:00.813Z,35.60
2018-06-14T05:10:28.372Z,33.50
2018-06-14T05:12:55.608Z,33.20
2018-06-14T05:15:22.868Z,30.50
2018-06-14T05:17:50.125Z,31.30
2018-06-14T05:20:17.404Z,31.50
2018-06-14T05:22:44.686Z,33.90
2018-06-14T05:25:11.938Z,33.10
2018-06-14T05:27:39.211Z,32.60
2018-06-14T05:30:06.496Z,34.00
2018-06-14T05:32:33.796Z,32.80
2018-06-14T05:35:01.080Z,34.50
2018-06-14T05:37:28.337Z,32.30
2018-06-14T05:39:55.579Z,31.10
2018-06-14T05:42:22.969Z,31.20
2018-06-14T05:44:50.193Z,30.80
2018-06-14T05:47:17.471Z,29.90
2018-06-14T05:49:44.716Z,29.90
2018-06-14T05:52:11.957Z,29.20
2018-06-14T05:54:39.231Z,27.70
2018-06-14T05:57:06.580Z,24.80
2018-06-14T05:59:33.844Z,22.30
2018-06-14T06:02:01.084Z,20.50
2018-06-14T06:04:28.542Z,19.60
2018-06-14T06:06:55.840Z,19.20
2018-06-14T06:11:50.461Z,17.70
2018-06-14T06:14:21.856Z,16.50
2018-06-14T06:16:49.152Z,13.50
2018-06-14T06:19:16.511Z,13.00
2018-06-14T06:21:43.824Z,12.20
2018-06-14T06:24:12.556Z,11.30
2018-06-14T06:26:39.848Z,10.40
2018-06-14T06:29:08.328Z,9.20
2018-06-14T06:31:35.648Z,11.00
2018-06-14T06:34:02.936Z,10.90
2018-06-14T06:36:30.184Z,9.60
2018-06-14T06:38:57.476Z,8.90
2018-06-14T06:41:24.750Z,8.20
2018-06-14T06:43:59.669Z,7.40
2018-06-14T06:46:26.961Z,6.10
2018-06-14T06:51:16.875Z,6.80
2018-06-14T06:53:44.357Z,6.20
2018-06-14T06:56:11.729Z,5.30
2018-06-14T07:01:06.442Z,4.50
2018-06-14T07:03:33.803Z,3.60
2018-06-14T07:06:01.300Z,2.70
2018-06-14T07:08:28.542Z,2.20
2018-06-14T07:10:55.987Z,1.40
2018-06-14T07:13:23.429Z,2.20
2018-06-14T07:15:50.794Z,1.00
2018-06-14T07:18:18.159Z,1.00
2018-06-14T07:20:45.607Z,1.00
2018-06-14T07:23:13.022Z,1.00
2018-06-14T07:25:40.498Z,1.00
2018-06-14T07:28:07.851Z,1.00
2018-06-14T07:30:35.186Z,1.00
2018-06-14T07:35:30.290Z,1.00
2018-06-14T07:37:57.850Z,1.00
2018-06-14T07:40:25.382Z,1.00
2018-06-14T07:42:52.800Z,1.00
2018-06-14T07:45:22.678Z,1.00
2018-06-14T07:47:50.846Z,1.00
2018-06-14T07:50:18.211Z,1.00
2018-06-14T07:52:45.636Z,1.00
2018-06-14T07:55:13.161Z,1.00
2018-06-14T07:57:45.254Z,1.00
2018-06-14T08:00:12.642Z,1.00
2018-06-14T08:02:40.019Z,1.00
2018-06-14T08:05:07.400Z,1.00
2018-06-14T08:07:34.757Z,1.00
2018-06-14T08:10:02.294Z,1.00
2018-06-14T08:12:31.797Z,1.00
2018-06-14T08:14:59.162Z,1.00
2018-06-14T08:17:26.624Z,1.00
2018-06-14T08:19:53.982Z,1.00
2018-06-14T08:22:21.323Z,1.00
2018-06-14T08:24:48.677Z,1.00
2018-06-14T08:27:20.675Z,1.00
2018-06-14T08:29:48.047Z,1.00
2018-06-14T08:32:15.412Z,1.00
2018-06-14T08:34:42.853Z,1.00
2018-06-14T08:37:10.761Z,1.00
2018-06-14T08:39:38.110Z,1.00
2018-06-14T08:42:07.344Z,1.00
2018-06-14T08:44:34.743Z,1.00
2018-06-14T08:47:02.352Z,1.00
2018-06-14T08:49:29.678Z,1.00
2018-06-14T08:51:57.064Z,1.00
2018-06-14T08:54:24.415Z,1.00
2018-06-14T08:56:51.793Z,1.00
2018-06-14T08:59:19.298Z,1.00
2018-06-14T09:01:46.713Z,1.00
2018-06-14T09:04:14.082Z,1.00
2018-06-14T09:06:41.533Z,1.00
2018-06-14T09:09:10.046Z,1.00
2018-06-14T09:11:42.345Z,1.00
2018-06-14T09:14:09.894Z,1.00
2018-06-14T09:16:37.847Z,1.00
2018-06-14T09:19:05.210Z,1.00
2018-06-14T09:21:32.628Z,1.00
2018-06-14T09:24:00.042Z,1.00
2018-06-14T09:26:31.844Z,1.00
2018-06-14T09:28:59.418Z,1.00
2018-06-14T09:31:26.870Z,1.00
2018-06-14T09:33:54.243Z,1.00
2018-06-14T09:36:21.590Z,1.00
2018-06-14T09:38:49.026Z,1.00
2018-06-14T09:41:20.926Z,1.00
2018-06-14T09:43:48.443Z,1.00
2018-06-14T09:46:15.789Z,1.00
2018-06-14T09:48:43.163Z,1.00
2018-06-14T09:51:10.599Z,1.00
2018-06-14T09:53:37.998Z,1.00
2018-06-14T09:56:05.514Z,1.00
2018-06-14T09:58:36.376Z,1.00
2018-06-14T10:01:03.837Z,1.00
2018-06-14T10:03:31.206Z,1.00
2018-06-14T10:05:59.106Z,1.00
2018-06-14T10:08:26.428Z,1.00
2018-06-14T10:10:54.162Z,1.00
2018-06-14T10:13:24.598Z,1.00
2018-06-14T10:15:52.336Z,1.00
2018-06-14T10:18:19.839Z,1.00
2018-06-14T10:20:47.264Z,1.00
2018-06-14T10:23:14.840Z,1.00
2018-06-14T10:25:42.239Z,1.00
2018-06-14T10:28:13.148Z,1.00
2018-06-14T10:30:40.523Z,1.00
2018-06-14T10:33:07.890Z,1.00
2018-06-14T10:35:35.193Z,1.00
2018-06-14T10:38:02.765Z,1.00
2018-06-14T10:40:30.356Z,1.00
2018-06-14T10:43:03.064Z,1.00
2018-06-14T10:45:31.180Z,1.00
2018-06-14T10:47:58.626Z,1.00
2018-06-14T10:50:25.995Z,1.00
2018-06-14T10:52:53.638Z,1.00
2018-06-14T10:55:25.067Z,1.00
2018-06-14T10:57:52.638Z,1.00
2018-06-14T11:00:20.014Z,1.00
2018-06-14T11:02:47.463Z,1.00
2018-06-14T11:05:14.836Z,1.00
2018-06-14T11:07:42.298Z,1.00
2018-06-14T11:10:13.363Z,1.00
2018-06-14T11:12:40.774Z,1.00
2018-06-14T11:15:08.130Z,1.00
2018-06-14T11:17:35.515Z,1.00
2018-06-14T11:20:03.081Z,1.00
2018-06-14T11:22:30.567Z,1.00
2018-06-14T11:25:02.227Z,1.00
2018-06-14T11:27:30.278Z,1.00
2018-06-14T11:29:57.766Z,1.00
2018-06-14T11:32:25.210Z,1.00
2018-06-14T11:34:52.890Z,1.00
2018-06-14T11:37:20.235Z,1.00
2018-06-14T11:39:49.325Z,1.00
2018-06-14T11:42:16.775Z,1.00
2018-06-14T11:44:44.089Z,1.00
2018-06-14T11:47:11.934Z,1.00
2018-06-14T11:49:39.306Z,1.00
2018-06-14T11:52:06.650Z,1.00
2018-06-14T11:54:34.061Z,1.00
2018-06-14T11:57:01.406Z,1.00
2018-06-14T11:59:30.189Z,1.00
2018-06-14T12:01:57.617Z,1.00
2018-06-14T12:04:24.991Z,1.00
2018-06-14T12:06:52.324Z,1.00
2018-06-14T12:09:19.814Z,1.00
2018-06-14T12:11:47.272Z,1.00
2018-06-14T12:14:18.480Z,1.00
2018-06-14T12:19:13.274Z,1.00
2018-06-14T12:21:40.703Z,1.00
2018-06-14T12:24:08.083Z,1.00
2018-06-14T12:26:35.507Z,1.00
2018-06-14T12:29:03.214Z,1.00
2018-06-14T12:31:30.526Z,1.00
2018-06-14T12:33:58.110Z,1.00
2018-06-14T12:36:25.475Z,1.00
2018-06-14T12:38:52.869Z,1.00
2018-06-14T12:41:20.178Z,1.00
2018-06-14T12:43:47.506Z,1.00
2018-06-14T12:46:14.950Z,1.00
2018-06-14T12:48:42.349Z,1.00
2018-06-14T12:51:10.292Z,1.00
2018-06-14T12:53:37.761Z,1.00
2018-06-14T12:56:05.341Z,1.00
2018-06-14T12:58:32.743Z,1.00
2018-06-14T13:01:00.196Z,1.00
2018-06-14T13:03:27.534Z,1.00
2018-06-14T13:05:54.910Z,1.00
2018-06-14T13:08:22.323Z,1.00
2018-06-14T13:10:49.702Z,1.00
2018-06-14T13:13:17.125Z,1.00
2018-06-14T13:15:44.517Z,1.00
2018-06-14T13:18:11.961Z,1.00
2018-06-14T13:20:39.347Z,1.00
2018-06-14T13:23:07.933Z,1.00
2018-06-14T13:25:35.360Z,1.00
2018-06-14T13:28:02.877Z,1.00
2018-06-14T13:30:30.185Z,1.00
2018-06-14T13:32:57.550Z,1.00
2018-06-14T13:35:25.088Z,1.00
2018-06-14T13:37:52.471Z,1.00
2018-06-14T13:40:20.071Z,1.00
2018-06-14T13:42:47.463Z,1.00
2018-06-14T13:45:14.831Z,1.00
2018-06-14T13:47:42.230Z,1.00
2018-06-14T13:50:09.617Z,1.00
2018-06-14T13:52:36.949Z,1.00
2018-06-14T13:55:04.328Z,1.00
2018-06-14T13:57:31.796Z,1.00
2018-06-14T13:59:59.283Z,1.00
2018-06-14T14:02:26.743Z,1.00
2018-06-14T14:04:54.253Z,1.00
2018-06-14T14:07:25.655Z,1.00
2018-06-14T14:09:53.098Z,1.00
2018-06-14T14:12:20.408Z,1.00
2018-06-14T14:14:47.743Z,1.00
2018-06-14T14:17:15.141Z,1.00
2018-06-14T14:19:42.553Z,1.00
2018-06-14T14:22:09.873Z,1.00
2018-06-14T14:24:37.219Z,1.00
2018-06-14T14:27:04.602Z,1.00
2018-06-14T14:29:31.930Z,1.00
2018-06-14T14:34:26.701Z,1.00
2018-06-14T14:36:54.056Z,1.00
2018-06-14T14:39:21.554Z,1.00
2018-06-14T14:41:48.926Z,1.00
2018-06-14T14:44:16.310Z,1.00
2018-06-14T14:46:43.723Z,1.00
2018-06-14T14:49:11.186Z,1.00
2018-06-14T14:51:38.499Z,1.00
2018-06-14T14:54:06.263Z,1.00
2018-06-14T14:56:33.676Z,1.00
2018-06-14T14:59:01.129Z,1.00
2018-06-14T15:01:28.505Z,1.00
2018-06-14T15:03:55.942Z,1.00
2018-06-14T15:06:23.459Z,1.00
2018-06-14T15:08:50.882Z,1.00
2018-06-14T15:11:18.396Z,1.00
2018-06-14T15:13:48.941Z,1.00
2018-06-14T15:16:16.387Z,1.00
2018-06-14T15:18:43.911Z,1.00
2018-06-14T15:21:11.502Z,1.00
2018-06-14T15:23:39.022Z,1.00
2018-06-14T15:26:07.046Z,1.00
2018-06-14T15:28:34.469Z,1.00
2018-06-14T15:31:02.505Z,1.00
2018-06-14T15:33:29.922Z,1.00
2018-06-14T15:35:57.380Z,1.00
2018-06-14T15:38:24.822Z,1.00
2018-06-14T15:40:52.341Z,1.00
2018-06-14T15:43:19.884Z,1.00
2018-06-14T15:45:47.263Z,1.00
2018-06-14T15:48:14.698Z,1.00
2018-06-14T15:50:43.163Z,1.00
2018-06-14T15:53:10.538Z,1.00
2018-06-14T15:56:21.270Z,1.00
2018-06-14T15:58:48.622Z,1.00
2018-06-14T16:01:16.135Z,1.00
2018-06-14T16:03:43.654Z,1.20
2018-06-14T16:06:11.234Z,1.00
2018-06-14T16:08:38.821Z,2.50
2018-06-14T16:11:06.330Z,3.50
2018-06-14T16:13:33.783Z,3.00
2018-06-14T16:16:01.136Z,3.40
2018-06-14T16:18:28.529Z,3.10
2018-06-14T16:20:55.909Z,3.40
2018-06-14T16:25:50.646Z,4.30
2018-06-14T16:28:18.098Z,4.40
2018-06-14T16:30:45.562Z,5.80
2018-06-14T16:33:12.970Z,5.80
2018-06-14T16:35:40.362Z,8.20
2018-06-14T16:38:07.743Z,7.00
2018-06-14T16:40:35.168Z,8.00
2018-06-14T16:43:02.649Z,8.00
2018-06-14T16:45:30.430Z,10.00
2018-06-14T16:47:57.858Z,9.60
2018-06-14T16:50:25.239Z,10.80
2018-06-14T16:52:52.638Z,11.60
2018-06-14T16:55:20.441Z,11.00
2018-06-14T16:57:47.889Z,10.70
2018-06-14T17:00:15.455Z,11.70
2018-06-14T17:05:10.315Z,11.30
2018-06-14T17:07:37.614Z,11.80
2018-06-14T17:10:05.123Z,14.30
2018-06-14T17:12:33.080Z,13.20
2018-06-14T17:15:00.444Z,13.40
2018-06-14T17:17:27.956Z,13.80
2018-06-14T17:22:23.118Z,15.00
2018-06-14T17:24:50.545Z,18.80
2018-06-14T17:27:18.011Z,16.60
2018-06-14T17:29:45.516Z,15.90
2018-06-14T17:32:13.098Z,16.80
2018-06-14T17:34:40.458Z,18.10
2018-06-14T17:37:07.860Z,18.10
2018-06-14T17:39:35.329Z,17.10
2018-06-14T17:42:02.750Z,18.30
2018-06-14T17:44:30.206Z,18.50
2018-06-14T17:46:57.630Z,18.90
2018-06-14T17:49:25.057Z,17.40
2018-06-14T17:51:52.490Z,18.00
2018-06-14T17:54:19.998Z,17.90
2018-06-14T17:56:47.370Z,17.90
2018-06-14T17:59:14.794Z,19.50
2018-06-14T18:01:42.164Z,19.50
2018-06-14T18:04:09.676Z,19.60
2018-06-14T18:06:37.235Z,19.60
2018-06-14T18:09:06.602Z,22.20
2018-06-14T18:11:33.909Z,20.80
2018-06-14T18:14:01.605Z,23.50
2018-06-14T18:16:29.184Z,22.20
2018-06-14T18:18:57.395Z,24.00
2018-06-14T18:21:24.986Z,24.40
2018-06-14T18:23:52.504Z,24.80
2018-06-14T18:26:20.147Z,24.00
2018-06-14T18:28:47.612Z,24.40
2018-06-14T18:31:14.946Z,24.60
2018-06-14T18:33:42.440Z,25.00
2018-06-14T18:36:09.846Z,24.70
2018-06-14T18:38:37.239Z,25.50
2018-06-14T18:41:04.684Z,27.00
2018-06-14T18:43:32.031Z,27.10
2018-06-14T18:45:59.407Z,26.30
2018-06-14T18:48:26.710Z,26.40
2018-06-14T18:50:54.154Z,27.60
2018-06-14T18:53:21.629Z,27.20
2018-06-14T18:55:48.965Z,28.30
2018-06-14T18:58:16.428Z,27.60
2018-06-14T19:00:43.824Z,28.50
2018-06-14T19:03:11.462Z,27.70
2018-06-14T19:08:06.182Z,27.70
2018-06-14T19:10:33.678Z,27.70
2018-06-14T19:13:01.046Z,27.70
2018-06-14T19:15:28.594Z,27.10
2018-06-14T19:17:56.128Z,27.60
2018-06-14T19:20:23.989Z,26.70
2018-06-14T19:22:51.447Z,26.90
2018-06-14T19:25:19.142Z,27.60
2018-06-14T19:27:48.112Z,27.60
2018-06-14T19:30:15.562Z,27.00
2018-06-14T19:32:42.915Z,27.70
2018-06-14T19:35:10.290Z,27.50
2018-06-14T19:37:37.699Z,27.50
2018-06-14T19:40:06.195Z,27.50
2018-06-14T19:42:33.578Z,27.50
2018-06-14T19:45:01.099Z,27.50
2018-06-14T19:47:28.914Z,27.70
2018-06-14T19:49:57.172Z,27.50
2018-06-14T19:52:24.673Z,27.50
2018-06-14T19:54:52.136Z,29.10
2018-06-14T19:57:19.947Z,27.90
2018-06-14T19:59:47.560Z,28.50
2018-06-14T20:02:14.900Z,29.10
2018-06-14T20:04:42.373Z,29.70
2018-06-14T20:07:09.774Z,29.90
2018-06-14T20:09:37.861Z,29.60
2018-06-14T20:12:05.251Z,30.00
2018-06-14T20:14:32.729Z,31.20
2018-06-14T20:17:00.232Z,30.40
2018-06-14T20:19:27.582Z,29.70
2018-06-14T20:21:55.042Z,29.90
2018-06-14T20:24:22.534Z,30.20
2018-06-14T20:26:49.870Z,29.60
2018-06-14T20:29:17.272Z,32.10
2018-06-14T20:31:44.595Z,30.80
2018-06-14T20:34:12.222Z,30.10
2018-06-14T20:36:40.082Z,28.80
2018-06-14T20:39:09.880Z,29.40
2018-06-14T20:41:37.447Z,29.00
2018-06-14T20:44:04.966Z,29.80
2018-06-14T20:46:32.378Z,29.90
2018-06-14T20:49:00.443Z,29.70
2018-06-14T20:51:27.849Z,29.10
2018-06-14T20:53:55.247Z,29.30
2018-06-14T20:56:22.730Z,29.80
2018-06-14T20:58:50.106Z,29.80
2018-06-14T21:01:18.095Z,29.00
2018-06-14T21:03:50.409Z,30.70
2018-06-14T21:06:17.906Z,30.60
2018-06-14T21:08:47.533Z,30.00
2018-06-14T21:11:14.891Z,30.30
2018-06-14T21:13:42.498Z,29.10
2018-06-14T21:16:09.907Z,29.80
2018-06-14T21:18:37.365Z,29.00
2018-06-14T21:21:06.437Z,32.60
2018-06-14T21:23:33.778Z,32.60
2018-06-14T21:28:29.113Z,38.80
2018-06-14T21:30:56.470Z,38.70
2018-06-14T21:33:23.999Z,39.70
2018-06-14T21:35:51.453Z,38.60
2018-06-14T21:38:18.871Z,41.10
2018-06-14T21:40:47.810Z,42.50
2018-06-14T21:43:15.152Z,44.70
2018-06-14T21:45:42.595Z,45.90
2018-06-14T21:48:10.099Z,49.10
2018-06-14T21:50:37.667Z,48.70
2018-06-14T21:53:05.099Z,49.60
2018-06-14T21:55:32.474Z,50.00
2018-06-14T21:57:59.891Z,49.20
2018-06-14T22:00:27.220Z,49.80
2018-06-14T22:03:00.376Z,50.20
2018-06-14T22:05:27.719Z,50.90
2018-06-14T22:07:55.214Z,50.10
2018-06-14T22:10:22.734Z,50.80
2018-06-14T22:12:50.109Z,50.20
2018-06-14T22:15:17.487Z,53.50
2018-06-14T22:17:44.934Z,55.20
2018-06-14T22:20:12.305Z,56.00
2018-06-14T22:22:39.664Z,57.50
2018-06-14T22:25:06.998Z,57.90
2018-06-14T22:27:34.466Z,59.40
2018-06-14T22:30:02.043Z,58.70
2018-06-14T22:32:29.459Z,58.90
2018-06-14T22:35:08.270Z,60.00
2018-06-14T22:37:35.658Z,57.60
2018-06-14T22:40:03.098Z,60.50
2018-06-14T22:42:30.445Z,59.70
2018-06-14T22:44:57.782Z,59.00
2018-06-14T22:47:25.258Z,59.90
2018-06-14T22:49:52.574Z,60.00
2018-06-14T22:52:45.280Z,61.30
2018-06-14T22:55:12.851Z,61.30
2018-06-14T22:57:40.814Z,60.10
2018-06-14T23:00:08.406Z,61.30
2018-06-14T23:02:36.016Z,60.70
2018-06-14T23:05:03.746Z,59.70
2018-06-14T23:07:31.839Z,59.50
2018-06-14T23:10:20.811Z,60.30
2018-06-14T23:12:48.574Z,59.30
2018-06-14T23:15:16.889Z,59.00
2018-06-14T23:17:45.422Z,59.60
2018-06-14T23:20:14.179Z,60.30
2018-06-14T23:22:41.762Z,60.40
2018-06-14T23:25:09.303Z,60.80
2018-06-14T23:27:36.838Z,58.80
2018-06-14T23:30:04.419Z,59.70
2018-06-14T23:32:32.039Z,60.90
2018-06-14T23:34:59.779Z,60.40
2018-06-14T23:37:27.377Z,59.10
2018-06-14T23:39:55.775Z,58.90
2018-06-14T23:42:23.637Z,60.10
2018-06-14T23:44:53.306Z,60.00
2018-06-14T23:47:20.742Z,58.70
2018-06-14T23:49:48.284Z,58.70
2018-06-14T23:52:15.752Z,58.00
2018-06-14T23:54:43.173Z,58.50
2018-06-14T23:57:10.592Z,58.80
2018-06-14T23:59:38.113Z,60.20
